Time;durP1;ratioP1;P1;durP2;ratioP2;P2;SDS_P1;SDS_P2;PMS_P1;PMS_P2;Temp;Humidity;BMP_temperature;BMP_pressure;BME280_temperature;BME280_humidity;BME280_pressure;Samples;Min_cycle;Max_cycle;Signal;HPM_P1;HPM_P2
2023/12/01 00:01:46;;;;;;;;;;;;;;;;;;4971964;28;90142;-66
2023/12/01 00:04:11;;;;;;;;;;;;;;;;;;4968708;28;90673;-66
2023/12/01 00:06:37;;;;;;;;;;;;;;;;;;4969019;28;89779;-68
2023/12/01 00:09:02;;;;;;;;;;;;;;;;;;4968350;28;89475;-65
2023/12/01 00:11:28;;;;;;;;;;;;;;;;;;4968275;28;90683;-66
2023/12/01 00:13:53;;;;;;;;;;;;;;;;;;4966670;28;89221;-66
2023/12/01 00:16:18;;;;;;;;;;;;;;;;;;4967943;28;89319;-66
2023/12/01 00:18:43;;;;;;;;;;;;;;;;;;4967483;28;89546;-66
2023/12/01 00:21:10;;;;;;;;;;;;;;;;;;4968066;28;89540;-66
2023/12/01 00:23:35;;;;;;;;;;;;;;;;;;4970448;28;89253;-66
2023/12/01 00:26:01;;;;;;;;;;;;;;;;;;4969734;28;89517;-65
2023/12/01 00:28:26;;;;;;;;;;;;;;;;;;4968019;28;88946;-66
2023/12/01 00:30:51;;;;;;;;;;;;;;;;;;4968389;28;89697;-66
2023/12/01 00:33:16;;;;;;;;;;;;;;;;;;4967993;28;89173;-66
2023/12/01 00:35:42;;;;;;;;;;;;;;;;;;4962020;28;89095;-67
2023/12/01 00:38:07;;;;;;;;;;;;;;;;;;4948618;28;90433;-66
2023/12/01 00:40:33;;;;;;;;;;;;;;;;;;4947123;28;89513;-68
2023/12/01 00:42:58;;;;;;;;;;;;;;;;;;4948081;28;89028;-66
2023/12/01 00:45:23;;;;;;;;;;;;;;;;;;4950519;28;90331;-67
2023/12/01 00:47:48;;;;;;;;;;;;;;;;;;4967306;28;88943;-65
2023/12/01 00:50:14;;;;;;;;;;;;;;;;;;4967212;28;89649;-66
2023/12/01 00:52:39;;;;;;;;;;;;;;;;;;4966822;28;89521;-65
2023/12/01 00:55:04;;;;;;;;;;;;;;;;;;4968048;28;88996;-67
2023/12/01 00:57:29;;;;;;;;;;;;;;;;;;4967163;28;91189;-70
2023/12/01 00:59:55;;;;;;;;;;;;;;;;;;4967549;28;89303;-68
2023/12/01 01:02:20;;;;;;;;;;;;;;;;;;4968945;28;89761;-67
2023/12/01 01:04:45;;;;;;;;;;;;;;;;;;4967381;28;89467;-67
2023/12/01 01:07:11;;;;;;;;;;;;;;;;;;4970119;28;90407;-67
2023/12/01 01:09:36;;;;;;;;;;;;;;;;;;4966574;28;89604;-68
2023/12/01 01:12:01;;;;;;;;;;;;;;;;;;4962877;28;89628;-68
2023/12/01 01:14:27;;;;;;;;;;;;;;;;;;4946752;28;89237;-67
2023/12/01 01:16:52;;;;;;;;;;;;;;;;;;4947470;28;90454;-68
2023/12/01 01:19:18;;;;;;;;;;;;;;;;;;4946412;28;89214;-67
2023/12/01 01:21:43;;;;;;;;;;;;;;;;;;4948546;28;89016;-67
2023/12/01 01:24:08;;;;;;;;;;;;;;;;;;4946908;28;89491;-66
2023/12/01 01:26:33;;;;;;;;;;;;;;;;;;4950491;28;89119;-67
2023/12/01 01:28:59;;;;;;;;;;;;;;;;;;4947164;28;89458;-66
2023/12/01 01:31:24;;;;;;;;;;;;;;;;;;4946950;28;90196;-66
2023/12/01 01:33:49;;;;;;;;;;;;;;;;;;4946786;28;89905;-65
2023/12/01 01:36:14;;;;;;;;;;;;;;;;;;4947895;28;89554;-65
2023/12/01 01:38:40;;;;;;;;;;;;;;;;;;4947735;28;90299;-67
2023/12/01 01:41:06;;;;;;;;;;;;;;;;;;4948047;28;90425;-65
2023/12/01 01:43:31;;;;;;;;;;;;;;;;;;4947255;28;90201;-66
2023/12/01 01:46:04;;;;;;;;;;;;;;;;;;4951281;28;90177;-67
2023/12/01 01:48:30;;;;;;;;;;;;;;;;;;4971023;28;90650;-65
2023/12/01 01:50:56;;;;;;;;;;;;;;;;;;4986746;28;89740;-66
2023/12/01 01:53:21;;;;;;;;;;;;;;;;;;4986364;28;89621;-65
2023/12/01 01:55:46;;;;;;;;;;;;;;;;;;4987072;28;90059;-66
2023/12/01 01:58:12;;;;;;;;;;;;;;;;;;4990209;28;89432;-65
2023/12/01 02:00:38;;;;;;;;;;;;;;;;;;4990663;28;89171;-66
2023/12/01 02:03:03;;;;;;;;;;;;;;;;;;4991272;28;90699;-67
2023/12/01 02:05:29;;;;;;;;;;;;;;;;;;4983044;28;90289;-66
2023/12/01 02:07:54;;;;;;;;;;;;;;;;;;4972958;28;89405;-65
2023/12/01 02:10:19;;;;;;;;;;;;;;;;;;4974021;28;89507;-67
2023/12/01 02:12:44;;;;;;;;;;;;;;;;;;4970938;28;89133;-71
2023/12/01 02:15:10;;;;;;;;;;;;;;;;;;4967931;28;89935;-66
2023/12/01 02:17:37;;;;;;;;;;;;;;;;;;4958233;28;89574;-68
2023/12/01 02:20:03;;;;;;;;;;;;;;;;;;4962816;28;89109;-67
2023/12/01 02:22:28;;;;;;;;;;;;;;;;;;4957659;28;89423;-68
2023/12/01 02:24:54;;;;;;;;;;;;;;;;;;4955242;28;89535;-68
2023/12/01 02:27:19;;;;;;;;;;;;;;;;;;4970544;28;89828;-67
2023/12/01 02:29:44;;;;;;;;;;;;;;;;;;4957960;28;89505;-68
2023/12/01 02:32:09;;;;;;;;;;;;;;;;;;4960805;28;89701;-65
2023/12/01 02:34:35;;;;;;;;;;;;;;;;;;4954656;28;89725;-67
2023/12/01 02:37:00;;;;;;;;;;;;;;;;;;4955521;28;90113;-67
2023/12/01 02:39:25;;;;;;;;;;;;;;;;;;4962387;28;88961;-68
2023/12/01 02:41:51;;;;;;;;;;;;;;;;;;4959269;28;89576;-68
2023/12/01 02:44:16;;;;;;;;;;;;;;;;;;4957740;28;89229;-66
2023/12/01 02:46:41;;;;;;;;;;;;;;;;;;4962671;28;89612;-68
2023/12/01 02:49:08;;;;;;;;;;;;;;;;;;4958350;28;89640;-68
2023/12/01 02:51:33;;;;;;;;;;;;;;;;;;4951301;28;89802;-67
2023/12/01 02:53:58;;;;;;;;;;;;;;;;;;4963297;28;89466;-69
2023/12/01 02:56:23;;;;;;;;;;;;;;;;;;4958115;28;89197;-67
2023/12/01 02:58:48;;;;;;;;;;;;;;;;;;4957866;28;89523;-68
2023/12/01 03:01:14;;;;;;;;;;;;;;;;;;4957397;28;89107;-66
2023/12/01 03:03:40;;;;;;;;;;;;;;;;;;4959562;28;89095;-67
2023/12/01 03:06:05;;;;;;;;;;;;;;;;;;4959652;28;88997;-68
2023/12/01 03:08:30;;;;;;;;;;;;;;;;;;4960197;28;90389;-68
2023/12/01 03:10:56;;;;;;;;;;;;;;;;;;4959088;28;89510;-68
2023/12/01 03:13:22;;;;;;;;;;;;;;;;;;4956898;28;89516;-68
2023/12/01 03:15:47;;;;;;;;;;;;;;;;;;4958151;28;89309;-68
2023/12/01 03:18:13;;;;;;;;;;;;;;;;;;4955390;28;89029;-67
2023/12/01 03:20:38;;;;;;;;;;;;;;;;;;4959961;28;90266;-67
2023/12/01 03:23:04;;;;;;;;;;;;;;;;;;4960792;28;91113;-68
2023/12/01 03:25:29;;;;;;;;;;;;;;;;;;4964465;28;89166;-67
2023/12/01 03:27:54;;;;;;;;;;;;;;;;;;4960892;28;91120;-68
2023/12/01 03:30:20;;;;;;;;;;;;;;;;;;4957210;28;90053;-69
2023/12/01 03:32:46;;;;;;;;;;;;;;;;;;4958542;28;89089;-67
2023/12/01 03:35:12;;;;;;;;;;;;;;;;;;4961421;28;89673;-67
2023/12/01 03:37:38;;;;;;;;;;;;;;;;;;4957037;28;89004;-66
2023/12/01 03:40:07;;;;;;;;;;;;;;;;;;4961331;28;89844;-65
2023/12/01 03:42:32;;;;;;;;;;;;;;;;;;4954677;28;89967;-66
2023/12/01 03:44:57;;;;;;;;;;;;;;;;;;4966964;28;89495;-67
2023/12/01 03:47:22;;;;;;;;;;;;;;;;;;4967747;28;89529;-66
2023/12/01 03:49:48;;;;;;;;;;;;;;;;;;4959456;28;89402;-66
2023/12/01 03:52:13;;;;;;;;;;;;;;;;;;4959876;28;89186;-65
2023/12/01 03:54:38;;;;;;;;;;;;;;;;;;4962784;28;89630;-66
2023/12/01 03:57:04;;;;;;;;;;;;;;;;;;4960946;28;89217;-67
2023/12/01 03:59:29;;;;;;;;;;;;;;;;;;4957516;28;89087;-67
2023/12/01 04:01:54;;;;;;;;;;;;;;;;;;4957223;28;90153;-67
2023/12/01 04:04:19;;;;;;;;;;;;;;;;;;4956536;28;89062;-67
2023/12/01 04:06:44;;;;;;;;;;;;;;;;;;4963932;28;89481;-67
2023/12/01 04:09:10;;;;;;;;;;;;;;;;;;4965938;28;89265;-68
2023/12/01 04:11:37;;;;;;;;;;;;;;;;;;4963645;28;89515;-68
2023/12/01 04:14:03;;;;;;;;;;;;;;;;;;4981819;28;91477;-68
2023/12/01 04:16:29;;;;;;;;;;;;;;;;;;4962055;28;90179;-68
2023/12/01 04:18:54;;;;;;;;;;;;;;;;;;4959366;28;89769;-68
2023/12/01 04:21:19;;;;;;;;;;;;;;;;;;4964565;28;89602;-66
2023/12/01 04:23:45;;;;;;;;;;;;;;;;;;4958877;28;89523;-67
2023/12/01 04:26:12;;;;;;;;;;;;;;;;;;4959541;28;91493;-68
2023/12/01 04:28:37;;;;;;;;;;;;;;;;;;4951521;28;90278;-67
2023/12/01 04:31:05;;;;;;;;;;;;;;;;;;4961446;28;89040;-67
2023/12/01 04:33:30;;;;;;;;;;;;;;;;;;4956648;28;89690;-68
2023/12/01 04:35:55;;;;;;;;;;;;;;;;;;4956648;28;89229;-68
2023/12/01 04:38:20;;;;;;;;;;;;;;;;;;4957399;28;89656;-66
2023/12/01 04:40:46;;;;;;;;;;;;;;;;;;4964206;28;90692;-67
2023/12/01 04:43:11;;;;;;;;;;;;;;;;;;4956930;28;89789;-67
2023/12/01 04:45:36;;;;;;;;;;;;;;;;;;4958796;28;90790;-68
2023/12/01 04:48:01;;;;;;;;;;;;;;;;;;4960783;28;90313;-67
2023/12/01 04:50:28;;;;;;;;;;;;;;;;;;4955203;28;90282;-66
2023/12/01 04:52:57;;;;;;;;;;;;;;;;;;4960312;28;90418;-66
2023/12/01 04:55:24;;;;;;;;;;;;;;;;;;4955568;28;89458;-67
2023/12/01 04:57:49;;;;;;;;;;;;;;;;;;4957084;28;89071;-67
2023/12/01 05:00:22;;;;;;;;;;;;;;;;;;4953347;28;89078;-67
2023/12/01 05:02:50;;;;;;;;;;;;;;;;;;4959384;28;89517;-67
2023/12/01 05:05:16;;;;;;;;;;;;;;;;;;4957057;28;89518;-67
2023/12/01 05:07:41;;;;;;;;;;;;;;;;;;4957908;28;89325;-67
2023/12/01 05:10:14;;;;;;;;;;;;;;;;;;4969096;28;89789;-66
2023/12/01 05:12:39;;;;;;;;;;;;;;;;;;4955848;28;90469;-66
2023/12/01 05:15:05;;;;;;;;;;;;;;;;;;4956288;28;89195;-66
2023/12/01 05:17:30;;;;;;;;;;;;;;;;;;4950597;28;89459;-66
2023/12/01 05:19:56;;;;;;;;;;;;;;;;;;4959351;28;90456;-66
2023/12/01 05:22:21;;;;;;;;;;;;;;;;;;4967829;28;90180;-66
2023/12/01 05:24:46;;;;;;;;;;;;;;;;;;4958991;28;89849;-67
2023/12/01 05:27:12;;;;;;;;;;;;;;;;;;4960830;28;90150;-67
2023/12/01 05:29:38;;;;;;;;;;;;;;;;;;4957488;28;89435;-66
2023/12/01 05:32:03;;;;;;;;;;;;;;;;;;4960290;28;90709;-65
2023/12/01 05:34:29;;;;;;;;;;;;;;;;;;4960388;28;89891;-65
2023/12/01 05:36:54;;;;;;;;;;;;;;;;;;4959748;28;89533;-66
2023/12/01 05:39:19;;;;;;;;;;;;;;;;;;4959191;28;89563;-66
2023/12/01 05:41:44;;;;;;;;;;;;;;;;;;4963227;28;90919;-67
2023/12/01 05:44:09;;;;;;;;;;;;;;;;;;4959786;28;89046;-67
2023/12/01 05:46:34;;;;;;;;;;;;;;;;;;4967497;28;89212;-66
2023/12/01 05:49:02;;;;;;;;;;;;;;;;;;4958475;28;89463;-66
2023/12/01 05:51:27;;;;;;;;;;;;;;;;;;4959374;28;90646;-65
2023/12/01 05:53:53;;;;;;;;;;;;;;;;;;4959129;28;89681;-65
2023/12/01 05:56:18;;;;;;;;;;;;;;;;;;4957693;28;90255;-66
2023/12/01 05:58:44;;;;;;;;;;;;;;;;;;4957600;28;90268;-65
2023/12/01 06:01:10;;;;;;;;;;;;;;;;;;4954588;28;90020;-65
2023/12/01 06:03:36;;;;;;;;;;;;;;;;;;4963260;28;90021;-66
2023/12/01 06:06:01;;;;;;;;;;;;;;;;;;4977634;28;93282;-66
2023/12/01 06:08:26;;;;;;;;;;;;;;;;;;4955995;28;89533;-66
2023/12/01 06:10:52;;;;;;;;;;;;;;;;;;4959952;28;90369;-65
2023/12/01 06:13:17;;;;;;;;;;;;;;;;;;4958308;28;89415;-66
2023/12/01 06:15:42;;;;;;;;;;;;;;;;;;4963077;28;89262;-65
2023/12/01 06:18:08;;;;;;;;;;;;;;;;;;4971119;28;90179;-66
2023/12/01 06:20:34;;;;;;;;;;;;;;;;;;4960728;28;89315;-65
2023/12/01 06:23:00;;;;;;;;;;;;;;;;;;4956071;28;90696;-65
2023/12/01 06:25:27;;;;;;;;;;;;;;;;;;4954069;28;90818;-65
2023/12/01 06:27:52;;;;;;;;;;;;;;;;;;4963823;28;89591;-65
2023/12/01 06:30:18;;;;;;;;;;;;;;;;;;4955241;28;89219;-66
2023/12/01 06:32:46;;;;;;;;;;;;;;;;;;4961980;28;93242;-63
2023/12/01 06:35:12;;;;;;;;;;;;;;;;;;4956337;28;89426;-63
2023/12/01 06:37:38;;;;;;;;;;;;;;;;;;4958423;28;89585;-65
2023/12/01 06:40:09;;;;;;;;;;;;;;;;;;4959067;28;90718;-68
2023/12/01 06:42:37;;;;;;;;;;;;;;;;;;4957499;28;89958;-61
2023/12/01 06:45:02;;;;;;;;;;;;;;;;;;4955818;28;89929;-62
2023/12/01 06:47:28;;;;;;;;;;;;;;;;;;4960973;28;89203;-63
2023/12/01 06:49:53;;;;;;;;;;;;;;;;;;4958130;28;90494;-63
2023/12/01 06:52:18;;;;;;;;;;;;;;;;;;4953374;28;90145;-62
2023/12/01 06:54:44;;;;;;;;;;;;;;;;;;4956371;28;89782;-62
2023/12/01 06:57:09;;;;;;;;;;;;;;;;;;4956703;28;91587;-62
2023/12/01 06:59:34;;;;;;;;;;;;;;;;;;4959633;28;89804;-62
2023/12/01 07:01:59;;;;;;;;;;;;;;;;;;4958882;28;89196;-65
2023/12/01 07:04:24;;;;;;;;;;;;;;;;;;4955328;28;89665;-63
2023/12/01 07:06:50;;;;;;;;;;;;;;;;;;4955857;28;90130;-65
2023/12/01 07:09:18;;;;;;;;;;;;;;;;;;4959637;28;89537;-63
2023/12/01 07:11:44;;;;;;;;;;;;;;;;;;4963159;28;91694;-63
2023/12/01 07:14:12;;;;;;;;;;;;;;;;;;4955354;28;89848;-66
2023/12/01 07:16:37;;;;;;;;;;;;;;;;;;4958295;28;90653;-62
2023/12/01 07:19:03;;;;;;;;;;;;;;;;;;4972377;28;92982;-62
2023/12/01 07:21:30;;;;;;;;;;;;;;;;;;4953912;28;89606;-61
2023/12/01 07:23:55;;;;;;;;;;;;;;;;;;4916029;28;1195347;-66
2023/12/01 07:26:26;;;;;;;;;;;;;;;;;;4960845;28;89630;-62
2023/12/01 07:28:52;;;;;;;;;;;;;;;;;;4962263;28;90290;-65
2023/12/01 07:31:17;;;;;;;;;;;;;;;;;;4961799;28;90799;-65
2023/12/01 07:33:42;;;;;;;;;;;;;;;;;;4954375;28;89105;-65
2023/12/01 07:36:09;;;;;;;;;;;;;;;;;;4956755;28;90963;-65
2023/12/01 07:38:34;;;;;;;;;;;;;;;;;;4956571;28;90119;-65
2023/12/01 07:40:59;;;;;;;;;;;;;;;;;;4960425;28;90524;-64
2023/12/01 07:43:25;;;;;;;;;;;;;;;;;;4959013;28;89402;-65
2023/12/01 07:45:50;;;;;;;;;;;;;;;;;;4962979;28;89799;-65
2023/12/01 07:48:15;;;;;;;;;;;;;;;;;;4953669;28;89603;-66
2023/12/01 07:50:40;;;;;;;;;;;;;;;;;;4954324;28;89887;-65
2023/12/01 07:53:06;;;;;;;;;;;;;;;;;;4959370;28;90484;-65
2023/12/01 07:55:32;;;;;;;;;;;;;;;;;;4950969;28;89876;-64
2023/12/01 07:57:58;;;;;;;;;;;;;;;;;;4954419;28;90614;-65
2023/12/01 08:00:24;;;;;;;;;;;;;;;;;;4959469;28;89120;-62
2023/12/01 08:02:52;;;;;;;;;;;;;;;;;;4948772;28;89854;-63
2023/12/01 08:05:18;;;;;;;;;;;;;;;;;;4955942;28;90236;-62
2023/12/01 08:07:44;;;;;;;;;;;;;;;;;;4952567;28;89740;-64
2023/12/01 08:10:09;;;;;;;;;;;;;;;;;;4956760;28;89964;-62
2023/12/01 08:12:35;;;;;;;;;;;;;;;;;;4957967;28;90617;-62
2023/12/01 08:15:00;;;;;;;;;;;;;;;;;;4958459;28;89515;-62
2023/12/01 08:17:25;;;;;;;;;;;;;;;;;;4956712;28;90778;-62
2023/12/01 08:19:51;;;;;;;;;;;;;;;;;;4953588;28;90266;-62
2023/12/01 08:22:17;;;;;;;;;;;;;;;;;;4951573;28;89565;-62
2023/12/01 08:24:42;;;;;;;;;;;;;;;;;;4954902;28;89200;-63
2023/12/01 08:27:07;;;;;;;;;;;;;;;;;;4956681;28;89720;-62
2023/12/01 08:29:32;;;;;;;;;;;;;;;;;;4958977;28;89955;-63
2023/12/01 08:31:58;;;;;;;;;;;;;;;;;;4954441;28;89778;-64
2023/12/01 08:34:23;;;;;;;;;;;;;;;;;;4956618;28;90671;-64
2023/12/01 08:36:48;;;;;;;;;;;;;;;;;;4958090;28;91770;-63
2023/12/01 08:39:14;;;;;;;;;;;;;;;;;;4949711;28;89838;-63
2023/12/01 08:41:40;;;;;;;;;;;;;;;;;;4954169;28;90651;-62
2023/12/01 08:44:05;;;;;;;;;;;;;;;;;;4957242;28;89237;-63
2023/12/01 08:46:30;;;;;;;;;;;;;;;;;;4959026;28;89253;-64
2023/12/01 08:48:56;;;;;;;;;;;;;;;;;;4957620;28;90928;-63
2023/12/01 08:51:21;;;;;;;;;;;;;;;;;;4955229;28;90277;-63
2023/12/01 08:53:47;;;;;;;;;;;;;;;;;;4958399;28;90371;-63
2023/12/01 08:56:12;;;;;;;;;;;;;;;;;;4955871;28;89941;-62
2023/12/01 08:58:37;;;;;;;;;;;;;;;;;;4960388;28;90355;-65
2023/12/01 09:01:03;;;;;;;;;;;;;;;;;;4957640;28;90427;-65
2023/12/01 09:03:28;;;;;;;;;;;;;;;;;;4959802;28;90861;-64
2023/12/01 09:05:53;;;;;;;;;;;;;;;;;;4953968;28;89471;-63
2023/12/01 09:08:18;;;;;;;;;;;;;;;;;;4955894;28;90474;-64
2023/12/01 09:10:44;;;;;;;;;;;;;;;;;;4954345;28;89681;-63
2023/12/01 09:13:09;;;;;;;;;;;;;;;;;;4955755;28;89382;-64
2023/12/01 09:15:34;;;;;;;;;;;;;;;;;;4953996;28;90372;-62
2023/12/01 09:17:59;;;;;;;;;;;;;;;;;;4956775;28;91964;-64
2023/12/01 09:20:25;;;;;;;;;;;;;;;;;;4959934;28;89607;-63
2023/12/01 09:22:50;;;;;;;;;;;;;;;;;;4953051;28;89396;-62
2023/12/01 09:25:15;;;;;;;;;;;;;;;;;;4952860;28;89065;-61
2023/12/01 09:27:43;;;;;;;;;;;;;;;;;;4959538;28;89518;-67
2023/12/01 09:30:16;;;;;;;;;;;;;;;;;;4955826;28;90290;-65
2023/12/01 09:32:42;;;;;;;;;;;;;;;;;;4957999;28;89668;-64
2023/12/01 09:35:07;;;;;;;;;;;;;;;;;;4958008;28;90153;-69
2023/12/01 09:37:32;;;;;;;;;;;;;;;;;;4954213;28;89767;-67
2023/12/01 09:39:57;;;;;;;;;;;;;;;;;;4956541;28;89233;-67
2023/12/01 09:42:24;;;;;;;;;;;;;;;;;;4955458;28;91963;-62
2023/12/01 09:44:50;;;;;;;;;;;;;;;;;;4953654;28;89133;-62
2023/12/01 09:47:17;;;;;;;;;;;;;;;;;;4954562;28;90064;-66
2023/12/01 09:49:45;;;;;;;;;;;;;;;;;;4959882;28;90972;-65
2023/12/01 09:52:11;;;;;;;;;;;;;;;;;;4959475;28;90022;-67
2023/12/01 09:54:36;;;;;;;;;;;;;;;;;;4957259;28;89358;-66
2023/12/01 09:57:04;;;;;;;;;;;;;;;;;;4955133;28;90011;-66
2023/12/01 09:59:29;;;;;;;;;;;;;;;;;;4958890;28;89893;-65
2023/12/01 10:01:55;;;;;;;;;;;;;;;;;;4975221;28;91553;-70
2023/12/01 10:04:20;;;;;;;;;;;;;;;;;;4955799;28;90277;-65
2023/12/01 10:06:46;;;;;;;;;;;;;;;;;;4959114;28;91409;-68
2023/12/01 10:09:12;;;;;;;;;;;;;;;;;;4959304;28;89897;-66
2023/12/01 10:11:38;;;;;;;;;;;;;;;;;;4962996;28;89842;-66
2023/12/01 10:14:06;;;;;;;;;;;;;;;;;;4961999;28;89546;-69
2023/12/01 10:16:34;;;;;;;;;;;;;;;;;;4962848;28;89733;-67
2023/12/01 10:19:01;;;;;;;;;;;;;;;;;;4961790;28;89049;-69
2023/12/01 10:21:46;;;;;;;;;;;;;;;;;;4963324;28;90861;-72
2023/12/01 10:24:20;;;;;;;;;;;;;;;;;;4969376;28;90542;-71
2023/12/01 10:26:46;;;;;;;;;;;;;;;;;;4962343;28;89628;-74
2023/12/01 10:29:24;;;;;;;;;;;;;;;;;;4954576;28;92851;-69
2023/12/01 10:31:50;;;;;;;;;;;;;;;;;;4974411;28;89301;-64
2023/12/01 10:34:15;;;;;;;;;;;;;;;;;;4963313;28;90235;-65
2023/12/01 10:36:41;;;;;;;;;;;;;;;;;;4958374;28;92157;-65
2023/12/01 10:39:08;;;;;;;;;;;;;;;;;;4965849;28;89164;-61
2023/12/01 10:41:35;;;;;;;;;;;;;;;;;;4960916;28;90807;-62
2023/12/01 10:44:00;;;;;;;;;;;;;;;;;;4961118;28;89590;-62
2023/12/01 10:46:26;;;;;;;;;;;;;;;;;;4961126;28;89734;-62
2023/12/01 10:48:52;;;;;;;;;;;;;;;;;;4961329;28;90283;-62
2023/12/01 10:51:17;;;;;;;;;;;;;;;;;;4957397;28;89043;-63
2023/12/01 10:53:43;;;;;;;;;;;;;;;;;;4956682;28;89727;-63
2023/12/01 10:56:11;;;;;;;;;;;;;;;;;;4951961;28;89734;-63
2023/12/01 10:58:38;;;;;;;;;;;;;;;;;;4960661;28;89270;-61
2023/12/01 11:01:04;;;;;;;;;;;;;;;;;;4958196;28;89862;-65
2023/12/01 11:03:30;;;;;;;;;;;;;;;;;;4958956;28;89033;-61
2023/12/01 11:06:01;;;;;;;;;;;;;;;;;;4956369;28;90041;-62
2023/12/01 11:08:46;;;;;;;;;;;;;;;;;;4993437;28;92804;-62
2023/12/01 11:11:11;;;;;;;;;;;;;;;;;;4957809;28;89518;-63
2023/12/01 11:13:46;;;;;;;;;;;;;;;;;;4958309;28;92724;-62
2023/12/01 11:16:11;;;;;;;;;;;;;;;;;;4958737;28;89714;-64
2023/12/01 11:18:36;;;;;;;;;;;;;;;;;;4955479;28;89124;-62
2023/12/01 11:21:05;;;;;;;;;;;;;;;;;;4956316;28;90664;-61
2023/12/01 11:23:33;;;;;;;;;;;;;;;;;;4951302;28;90930;-69
2023/12/01 11:26:08;;;;;;;;;;;;;;;;;;4959088;28;89731;-67
2023/12/01 11:28:43;;;;;;;;;;;;;;;;;;4955064;28;89339;-63
2023/12/01 11:33:51;;;;;;;;;;;;;;;;;;4959053;28;89903;-63
2023/12/01 11:36:19;;;;;;;;;;;;;;;;;;4961753;28;89809;-63
2023/12/01 11:39:08;;;;;;;;;;;;;;;;;;4961370;28;89124;-63
2023/12/01 11:41:33;;;;;;;;;;;;;;;;;;4954383;28;89504;-62
2023/12/01 11:44:04;;;;;;;;;;;;;;;;;;4957376;28;90958;-63
2023/12/01 11:46:30;;;;;;;;;;;;;;;;;;4962759;28;91511;-63
2023/12/01 11:48:55;;;;;;;;;;;;;;;;;;4958477;28;90319;-63
2023/12/01 11:51:23;;;;;;;;;;;;;;;;;;4963194;28;91688;-63
2023/12/01 11:53:58;;;;;;;;;;;;;;;;;;4957635;28;90819;-63
2023/12/01 11:56:31;;;;;;;;;;;;;;;;;;4952554;28;89531;-63
2023/12/01 11:58:56;;;;;;;;;;;;;;;;;;4960491;28;89633;-62
2023/12/01 12:01:25;;;;;;;;;;;;;;;;;;4959149;28;90207;-62
2023/12/01 12:03:54;;;;;;;;;;;;;;;;;;4956331;28;89131;-62
2023/12/01 12:06:19;;;;;;;;;;;;;;;;;;4957140;28;89466;-63
2023/12/01 12:08:45;;;;;;;;;;;;;;;;;;4955978;28;89829;-63
2023/12/01 12:11:12;;;;;;;;;;;;;;;;;;4959828;28;90251;-63
2023/12/01 12:13:37;;;;;;;;;;;;;;;;;;4962107;28;90665;-63
2023/12/01 12:16:02;;;;;;;;;;;;;;;;;;4959523;28;91341;-62
2023/12/01 12:18:29;;;;;;;;;;;;;;;;;;4956952;28;90055;-63
2023/12/01 12:21:04;;;;;;;;;;;;;;;;;;4957890;28;90660;-62
2023/12/01 12:23:30;;;;;;;;;;;;;;;;;;4953505;28;90392;-62
2023/12/01 12:26:16;;;;;;;;;;;;;;;;;;4953096;28;89664;-62
2023/12/01 12:28:41;;;;;;;;;;;;;;;;;;4958844;28;90471;-63
2023/12/01 12:31:06;;;;;;;;;;;;;;;;;;4958901;28;91143;-62
2023/12/01 12:33:32;;;;;;;;;;;;;;;;;;4953019;28;89591;-62
2023/12/01 12:35:57;;;;;;;;;;;;;;;;;;4960820;28;90454;-62
2023/12/01 12:38:23;;;;;;;;;;;;;;;;;;4956685;28;90052;-62
2023/12/01 12:40:48;;;;;;;;;;;;;;;;;;4957027;28;90029;-63
2023/12/01 12:43:13;;;;;;;;;;;;;;;;;;4956365;28;89687;-62
2023/12/01 12:45:38;;;;;;;;;;;;;;;;;;4955819;28;90171;-62
2023/12/01 12:48:08;;;;;;;;;;;;;;;;;;4956927;28;90194;-63
2023/12/01 12:50:38;;;;;;;;;;;;;;;;;;4951031;28;90152;-63
2023/12/01 12:53:03;;;;;;;;;;;;;;;;;;4961634;28;89642;-62
2023/12/01 12:55:28;;;;;;;;;;;;;;;;;;4953579;28;89487;-62
2023/12/01 12:57:54;;;;;;;;;;;;;;;;;;4961739;28;89235;-62
2023/12/01 13:00:19;;;;;;;;;;;;;;;;;;4959566;28;89133;-62
2023/12/01 13:02:44;;;;;;;;;;;;;;;;;;4958408;28;90085;-62
2023/12/01 13:05:10;;;;;;;;;;;;;;;;;;4958484;28;90630;-62
2023/12/01 13:07:35;;;;;;;;;;;;;;;;;;4957085;28;90774;-62
2023/12/01 13:10:00;;;;;;;;;;;;;;;;;;4959108;28;92419;-62
2023/12/01 13:12:25;;;;;;;;;;;;;;;;;;4957264;28;90068;-61
2023/12/01 13:14:51;;;;;;;;;;;;;;;;;;4950752;28;90392;-62
2023/12/01 13:17:16;;;;;;;;;;;;;;;;;;4955154;28;90051;-62
2023/12/01 13:19:41;;;;;;;;;;;;;;;;;;4973072;28;91484;-62
2023/12/01 13:22:06;;;;;;;;;;;;;;;;;;4952156;28;90666;-62
2023/12/01 13:24:32;;;;;;;;;;;;;;;;;;4953340;28;89941;-62
2023/12/01 13:26:57;;;;;;;;;;;;;;;;;;4955065;28;89871;-62
2023/12/01 13:29:22;;;;;;;;;;;;;;;;;;4959265;28;89996;-62
2023/12/01 13:31:48;;;;;;;;;;;;;;;;;;4957572;28;90249;-63
2023/12/01 13:34:13;;;;;;;;;;;;;;;;;;4958108;28;91109;-61
2023/12/01 13:36:38;;;;;;;;;;;;;;;;;;4957945;28;89157;-62
2023/12/01 13:39:03;;;;;;;;;;;;;;;;;;4954881;28;89097;-61
2023/12/01 13:41:29;;;;;;;;;;;;;;;;;;4949501;28;90255;-61
2023/12/01 13:43:54;;;;;;;;;;;;;;;;;;4962324;28;89809;-61
2023/12/01 13:46:19;;;;;;;;;;;;;;;;;;4957492;28;90617;-65
2023/12/01 13:48:44;;;;;;;;;;;;;;;;;;4957200;28;89144;-62
2023/12/01 13:51:10;;;;;;;;;;;;;;;;;;4954305;28;89502;-61
2023/12/01 13:53:35;;;;;;;;;;;;;;;;;;4957243;28;90130;-61
2023/12/01 13:56:00;;;;;;;;;;;;;;;;;;4958695;28;89617;-62
2023/12/01 13:58:25;;;;;;;;;;;;;;;;;;4958355;28;90167;-62
2023/12/01 14:00:50;;;;;;;;;;;;;;;;;;4959870;28;90118;-61
2023/12/01 14:03:16;;;;;;;;;;;;;;;;;;4960535;28;90105;-61
2023/12/01 14:05:41;;;;;;;;;;;;;;;;;;4961344;28;90017;-62
2023/12/01 14:08:09;;;;;;;;;;;;;;;;;;4957519;28;91749;-61
2023/12/01 14:10:35;;;;;;;;;;;;;;;;;;4959197;28;90338;-61
2023/12/01 14:13:00;;;;;;;;;;;;;;;;;;4956915;28;90564;-61
2023/12/01 14:15:25;;;;;;;;;;;;;;;;;;4958229;28;89607;-61
2023/12/01 14:17:51;;;;;;;;;;;;;;;;;;4959366;28;89826;-62
2023/12/01 14:20:16;;;;;;;;;;;;;;;;;;4962578;28;89406;-63
2023/12/01 14:22:41;;;;;;;;;;;;;;;;;;4966802;28;90106;-62
2023/12/01 14:25:07;;;;;;;;;;;;;;;;;;4963244;28;89506;-62
2023/12/01 14:27:32;;;;;;;;;;;;;;;;;;4962252;28;90245;-62
2023/12/01 14:29:57;;;;;;;;;;;;;;;;;;4953317;28;89437;-62
2023/12/01 14:32:22;;;;;;;;;;;;;;;;;;4960753;28;89570;-62
2023/12/01 14:34:48;;;;;;;;;;;;;;;;;;4958120;28;90391;-62
2023/12/01 14:37:13;;;;;;;;;;;;;;;;;;4964673;28;90262;-62
2023/12/01 14:39:38;;;;;;;;;;;;;;;;;;4956978;28;91008;-62
2023/12/01 14:42:04;;;;;;;;;;;;;;;;;;4959271;28;89390;-61
2023/12/01 14:44:30;;;;;;;;;;;;;;;;;;4963551;28;89391;-61
2023/12/01 14:46:55;;;;;;;;;;;;;;;;;;4960922;28;89869;-61
2023/12/01 14:49:21;;;;;;;;;;;;;;;;;;4960114;28;89809;-61
2023/12/01 14:51:46;;;;;;;;;;;;;;;;;;4956476;28;90368;-61
2023/12/01 14:54:11;;;;;;;;;;;;;;;;;;4962967;28;90531;-61
2023/12/01 14:56:36;;;;;;;;;;;;;;;;;;4951933;28;90279;-61
2023/12/01 14:59:02;;;;;;;;;;;;;;;;;;4984899;28;89845;-61
2023/12/01 15:01:28;;;;;;;;;;;;;;;;;;4958411;28;89216;-62
2023/12/01 15:03:53;;;;;;;;;;;;;;;;;;4955400;28;89090;-61
2023/12/01 15:06:19;;;;;;;;;;;;;;;;;;4958971;28;89838;-62
2023/12/01 15:08:44;;;;;;;;;;;;;;;;;;4958471;28;89515;-61
2023/12/01 15:11:09;;;;;;;;;;;;;;;;;;4957935;28;89830;-61
2023/12/01 15:13:34;;;;;;;;;;;;;;;;;;4964012;28;89175;-62
2023/12/01 15:16:00;;;;;;;;;;;;;;;;;;4954761;28;89453;-62
2023/12/01 15:18:25;;;;;;;;;;;;;;;;;;4954842;28;89541;-62
2023/12/01 15:20:50;;;;;;;;;;;;;;;;;;4956957;28;90188;-61
2023/12/01 15:23:16;;;;;;;;;;;;;;;;;;4953258;28;91859;-62
2023/12/01 15:25:41;;;;;;;;;;;;;;;;;;4954420;28;90479;-62
2023/12/01 15:28:06;;;;;;;;;;;;;;;;;;4957813;28;90109;-61
2023/12/01 15:30:32;;;;;;;;;;;;;;;;;;4959163;28;91926;-61
2023/12/01 15:32:57;;;;;;;;;;;;;;;;;;4953139;28;89424;-61
2023/12/01 15:35:22;;;;;;;;;;;;;;;;;;4953097;28;90065;-61
2023/12/01 15:37:48;;;;;;;;;;;;;;;;;;4977970;28;91566;-62
2023/12/01 15:40:13;;;;;;;;;;;;;;;;;;4957829;28;89204;-62
2023/12/01 15:42:39;;;;;;;;;;;;;;;;;;4961756;28;90820;-61
2023/12/01 15:45:05;;;;;;;;;;;;;;;;;;4958159;28;89557;-61
2023/12/01 15:47:31;;;;;;;;;;;;;;;;;;4957434;28;89769;-61
2023/12/01 15:49:56;;;;;;;;;;;;;;;;;;4949473;28;91967;-61
2023/12/01 15:52:21;;;;;;;;;;;;;;;;;;4949328;28;90769;-61
2023/12/01 15:54:50;;;;;;;;;;;;;;;;;;4956262;28;90267;-61
2023/12/01 15:57:15;;;;;;;;;;;;;;;;;;4976742;28;91230;-61
2023/12/01 15:59:41;;;;;;;;;;;;;;;;;;4954670;28;90569;-62
2023/12/01 16:02:07;;;;;;;;;;;;;;;;;;4951946;28;90026;-63
2023/12/01 16:04:34;;;;;;;;;;;;;;;;;;4955191;28;90153;-62
2023/12/01 16:06:59;;;;;;;;;;;;;;;;;;4958361;28;90292;-61
2023/12/01 16:09:24;;;;;;;;;;;;;;;;;;4955501;28;90665;-62
2023/12/01 16:11:50;;;;;;;;;;;;;;;;;;4957794;28;89600;-61
2023/12/01 16:14:16;;;;;;;;;;;;;;;;;;4955898;28;89498;-62
2023/12/01 16:16:42;;;;;;;;;;;;;;;;;;4954212;28;91323;-61
2023/12/01 16:19:08;;;;;;;;;;;;;;;;;;4960069;28;90091;-61
2023/12/01 16:21:34;;;;;;;;;;;;;;;;;;4957327;28;89507;-62
2023/12/01 16:24:01;;;;;;;;;;;;;;;;;;4959686;28;89786;-62
2023/12/01 16:26:26;;;;;;;;;;;;;;;;;;4955832;28;90720;-62
2023/12/01 16:28:52;;;;;;;;;;;;;;;;;;4955471;28;90335;-61
2023/12/01 16:31:17;;;;;;;;;;;;;;;;;;4958357;28;90678;-61
2023/12/01 16:33:42;;;;;;;;;;;;;;;;;;4954354;28;90607;-61
2023/12/01 16:36:08;;;;;;;;;;;;;;;;;;4952661;28;89476;-62
2023/12/01 16:38:33;;;;;;;;;;;;;;;;;;4954740;28;89651;-61
2023/12/01 16:40:59;;;;;;;;;;;;;;;;;;4953204;28;89451;-61